sensor_id;sensor_type;location;lat;lon;timestamp;temperature;humidity
435;DHT22;204;48.942;9.256;2024-02-15T00:00:12;12.80;1.00
435;DHT22;204;48.942;9.256;2024-02-15T00:02:38;12.90;1.00
435;DHT22;204;48.942;9.256;2024-02-15T00:05:04;12.80;1.00
435;DHT22;204;48.942;9.256;2024-02-15T00:07:30;12.80;1.00
435;DHT22;204;48.942;9.256;2024-02-15T00:09:55;12.80;1.00
435;DHT22;204;48.942;9.256;2024-02-15T00:12:21;12.70;1.00
435;DHT22;204;48.942;9.256;2024-02-15T00:14:46;12.70;1.00
435;DHT22;204;48.942;9.256;2024-02-15T00:17:12;12.70;1.00
435;DHT22;204;48.942;9.256;2024-02-15T00:19:38;12.70;1.00
435;DHT22;204;48.942;9.256;2024-02-15T00:22:07;12.70;1.00
435;DHT22;204;48.942;9.256;2024-02-15T00:24:32;12.70;1.00
435;DHT22;204;48.942;9.256;2024-02-15T00:26:58;12.60;1.00
435;DHT22;204;48.942;9.256;2024-02-15T00:29:23;12.70;1.00
435;DHT22;204;48.942;9.256;2024-02-15T00:31:51;12.60;1.00
435;DHT22;204;48.942;9.256;2024-02-15T00:34:17;12.60;1.00
435;DHT22;204;48.942;9.256;2024-02-15T00:36:43;12.60;1.00
435;DHT22;204;48.942;9.256;2024-02-15T00:39:10;12.60;1.00
435;DHT22;204;48.942;9.256;2024-02-15T00:41:37;12.60;1.00
435;DHT22;204;48.942;9.256;2024-02-15T00:44:03;12.60;1.00
435;DHT22;204;48.942;9.256;2024-02-15T00:46:29;12.50;1.00
435;DHT22;204;48.942;9.256;2024-02-15T00:48:55;12.60;1.00
435;DHT22;204;48.942;9.256;2024-02-15T00:51:21;12.50;1.00
435;DHT22;204;48.942;9.256;2024-02-15T00:53:46;12.50;1.00
435;DHT22;204;48.942;9.256;2024-02-15T00:56:12;12.50;1.00
435;DHT22;204;48.942;9.256;2024-02-15T00:58:37;12.50;1.00
435;DHT22;204;48.942;9.256;2024-02-15T01:01:03;12.50;1.00
435;DHT22;204;48.942;9.256;2024-02-15T01:03:28;12.50;1.00
435;DHT22;204;48.942;9.256;2024-02-15T01:05:54;12.40;1.00
435;DHT22;204;48.942;9.256;2024-02-15T01:08:20;12.40;1.00
435;DHT22;204;48.942;9.256;2024-02-15T01:10:45;12.30;1.00
435;DHT22;204;48.942;9.256;2024-02-15T01:13:11;12.20;1.00
435;DHT22;204;48.942;9.256;2024-02-15T01:15:37;12.20;1.00
435;DHT22;204;48.942;9.256;2024-02-15T01:18:04;12.10;1.00
435;DHT22;204;48.942;9.256;2024-02-15T01:20:30;12.00;1.00
435;DHT22;204;48.942;9.256;2024-02-15T01:22:56;11.90;1.00
435;DHT22;204;48.942;9.256;2024-02-15T01:25:21;11.80;1.00
435;DHT22;204;48.942;9.256;2024-02-15T01:27:47;11.70;1.00
435;DHT22;204;48.942;9.256;2024-02-15T01:30:13;11.60;1.00
435;DHT22;204;48.942;9.256;2024-02-15T01:32:39;11.50;1.00
435;DHT22;204;48.942;9.256;2024-02-15T01:35:07;11.40;1.00
435;DHT22;204;48.942;9.256;2024-02-15T01:37:33;11.30;1.00
435;DHT22;204;48.942;9.256;2024-02-15T01:39:59;11.20;1.00
435;DHT22;204;48.942;9.256;2024-02-15T01:42:24;11.10;1.00
435;DHT22;204;48.942;9.256;2024-02-15T01:44:50;11.00;1.00
435;DHT22;204;48.942;9.256;2024-02-15T01:47:17;10.90;1.00
435;DHT22;204;48.942;9.256;2024-02-15T01:49:44;10.80;1.00
435;DHT22;204;48.942;9.256;2024-02-15T01:52:10;10.70;1.00
435;DHT22;204;48.942;9.256;2024-02-15T01:54:38;10.60;1.00
435;DHT22;204;48.942;9.256;2024-02-15T01:57:04;10.60;1.00
435;DHT22;204;48.942;9.256;2024-02-15T01:59:31;10.60;1.00
435;DHT22;204;48.942;9.256;2024-02-15T02:01:56;10.60;1.00
435;DHT22;204;48.942;9.256;2024-02-15T02:04:22;10.70;1.00
435;DHT22;204;48.942;9.256;2024-02-15T02:06:48;10.60;1.00
435;DHT22;204;48.942;9.256;2024-02-15T02:09:13;10.60;1.00
435;DHT22;204;48.942;9.256;2024-02-15T02:11:41;10.60;1.00
435;DHT22;204;48.942;9.256;2024-02-15T02:14:06;10.60;1.00
435;DHT22;204;48.942;9.256;2024-02-15T02:16:32;10.60;1.00
435;DHT22;204;48.942;9.256;2024-02-15T02:18:58;10.60;1.00
435;DHT22;204;48.942;9.256;2024-02-15T02:21:28;10.60;1.00
435;DHT22;204;48.942;9.256;2024-02-15T02:23:58;10.50;1.00
435;DHT22;204;48.942;9.256;2024-02-15T02:26:24;10.40;1.00
435;DHT22;204;48.942;9.256;2024-02-15T02:28:50;10.50;1.00
435;DHT22;204;48.942;9.256;2024-02-15T02:31:19;10.50;1.00
435;DHT22;204;48.942;9.256;2024-02-15T02:33:51;10.50;1.00
435;DHT22;204;48.942;9.256;2024-02-15T02:36:20;10.50;1.00
435;DHT22;204;48.942;9.256;2024-02-15T02:38:46;10.50;1.00
435;DHT22;204;48.942;9.256;2024-02-15T02:41:15;10.50;1.00
435;DHT22;204;48.942;9.256;2024-02-15T02:43:41;10.50;1.00
435;DHT22;204;48.942;9.256;2024-02-15T02:46:09;10.50;1.00
435;DHT22;204;48.942;9.256;2024-02-15T02:48:36;10.40;1.00
435;DHT22;204;48.942;9.256;2024-02-15T02:51:02;10.50;1.00
435;DHT22;204;48.942;9.256;2024-02-15T02:53:28;10.50;1.00
435;DHT22;204;48.942;9.256;2024-02-15T02:55:55;10.50;1.00
435;DHT22;204;48.942;9.256;2024-02-15T02:58:21;10.50;1.00
435;DHT22;204;48.942;9.256;2024-02-15T03:00:48;10.50;1.00
435;DHT22;204;48.942;9.256;2024-02-15T03:03:15;10.50;1.00
435;DHT22;204;48.942;9.256;2024-02-15T03:05:40;10.50;1.00
435;DHT22;204;48.942;9.256;2024-02-15T03:08:11;10.50;1.00
435;DHT22;204;48.942;9.256;2024-02-15T03:10:38;10.50;1.00
435;DHT22;204;48.942;9.256;2024-02-15T03:13:05;10.50;1.00
435;DHT22;204;48.942;9.256;2024-02-15T03:15:30;10.50;1.00
435;DHT22;204;48.942;9.256;2024-02-15T03:17:58;10.40;1.00
435;DHT22;204;48.942;9.256;2024-02-15T03:20:24;10.40;1.00
435;DHT22;204;48.942;9.256;2024-02-15T03:22:54;10.40;1.00
435;DHT22;204;48.942;9.256;2024-02-15T03:25:21;10.50;1.00
435;DHT22;204;48.942;9.256;2024-02-15T03:27:49;10.50;1.00
435;DHT22;204;48.942;9.256;2024-02-15T03:30:17;10.50;1.00
435;DHT22;204;48.942;9.256;2024-02-15T03:32:45;10.40;1.00
435;DHT22;204;48.942;9.256;2024-02-15T03:35:10;10.30;1.00
435;DHT22;204;48.942;9.256;2024-02-15T03:37:39;10.40;1.00
435;DHT22;204;48.942;9.256;2024-02-15T03:40:05;10.40;1.00
435;DHT22;204;48.942;9.256;2024-02-15T03:42:31;10.40;1.00
435;DHT22;204;48.942;9.256;2024-02-15T03:44:57;10.30;1.00
435;DHT22;204;48.942;9.256;2024-02-15T03:47:22;10.40;1.00
435;DHT22;204;48.942;9.256;2024-02-15T03:49:49;10.40;1.00
435;DHT22;204;48.942;9.256;2024-02-15T03:52:14;10.40;1.00
435;DHT22;204;48.942;9.256;2024-02-15T03:54:40;10.40;1.00
435;DHT22;204;48.942;9.256;2024-02-15T03:57:08;10.50;1.00
435;DHT22;204;48.942;9.256;2024-02-15T03:59:34;10.50;1.00
435;DHT22;204;48.942;9.256;2024-02-15T04:02:00;10.50;1.00
435;DHT22;204;48.942;9.256;2024-02-15T04:04:28;10.60;1.00
435;DHT22;204;48.942;9.256;2024-02-15T04:06:55;10.60;1.00
435;DHT22;204;48.942;9.256;2024-02-15T04:09:21;10.50;1.00
435;DHT22;204;48.942;9.256;2024-02-15T04:11:47;10.50;1.00
435;DHT22;204;48.942;9.256;2024-02-15T04:14:18;10.50;1.00
435;DHT22;204;48.942;9.256;2024-02-15T04:16:44;10.50;1.00
435;DHT22;204;48.942;9.256;2024-02-15T04:19:11;10.50;1.00
435;DHT22;204;48.942;9.256;2024-02-15T04:21:36;10.60;1.00
435;DHT22;204;48.942;9.256;2024-02-15T04:24:02;10.60;1.00
435;DHT22;204;48.942;9.256;2024-02-15T04:26:27;10.60;1.00
435;DHT22;204;48.942;9.256;2024-02-15T04:28:56;10.60;1.00
435;DHT22;204;48.942;9.256;2024-02-15T04:31:21;10.60;1.00
435;DHT22;204;48.942;9.256;2024-02-15T04:33:52;10.60;1.00
435;DHT22;204;48.942;9.256;2024-02-15T04:36:18;10.60;1.00
435;DHT22;204;48.942;9.256;2024-02-15T04:38:51;10.60;1.00
435;DHT22;204;48.942;9.256;2024-02-15T04:41:19;10.60;1.00
435;DHT22;204;48.942;9.256;2024-02-15T04:43:47;10.70;1.00
435;DHT22;204;48.942;9.256;2024-02-15T04:46:12;10.70;1.00
435;DHT22;204;48.942;9.256;2024-02-15T04:48:40;10.70;1.00
435;DHT22;204;48.942;9.256;2024-02-15T04:51:07;10.70;1.00
435;DHT22;204;48.942;9.256;2024-02-15T04:53:33;10.80;1.00
435;DHT22;204;48.942;9.256;2024-02-15T04:55:58;10.80;1.00
435;DHT22;204;48.942;9.256;2024-02-15T04:58:26;10.80;1.00
435;DHT22;204;48.942;9.256;2024-02-15T05:00:54;10.90;1.00
435;DHT22;204;48.942;9.256;2024-02-15T05:03:24;10.90;1.00
435;DHT22;204;48.942;9.256;2024-02-15T05:05:49;11.00;1.00
435;DHT22;204;48.942;9.256;2024-02-15T05:08:15;11.00;1.00
435;DHT22;204;48.942;9.256;2024-02-15T05:10:41;11.00;1.00
435;DHT22;204;48.942;9.256;2024-02-15T05:13:07;11.00;1.00
435;DHT22;204;48.942;9.256;2024-02-15T05:15:33;11.00;1.00
435;DHT22;204;48.942;9.256;2024-02-15T05:17:59;11.00;1.00
435;DHT22;204;48.942;9.256;2024-02-15T05:20:26;10.90;1.00
435;DHT22;204;48.942;9.256;2024-02-15T05:22:52;10.90;1.00
435;DHT22;204;48.942;9.256;2024-02-15T05:25:19;10.90;1.00
435;DHT22;204;48.942;9.256;2024-02-15T05:27:48;10.80;1.00
435;DHT22;204;48.942;9.256;2024-02-15T05:30:14;10.80;1.00
435;DHT22;204;48.942;9.256;2024-02-15T05:32:40;10.80;1.00
435;DHT22;204;48.942;9.256;2024-02-15T05:35:11;10.80;1.00
435;DHT22;204;48.942;9.256;2024-02-15T05:37:38;10.80;1.00
435;DHT22;204;48.942;9.256;2024-02-15T05:40:04;10.80;1.00
435;DHT22;204;48.942;9.256;2024-02-15T05:42:30;10.80;1.00
435;DHT22;204;48.942;9.256;2024-02-15T05:44:58;10.70;1.00
435;DHT22;204;48.942;9.256;2024-02-15T05:47:39;10.70;1.00
435;DHT22;204;48.942;9.256;2024-02-15T05:50:06;10.70;1.00
435;DHT22;204;48.942;9.256;2024-02-15T05:52:32;10.70;1.00
435;DHT22;204;48.942;9.256;2024-02-15T05:54:58;10.80;1.00
435;DHT22;204;48.942;9.256;2024-02-15T05:57:23;10.80;1.00
435;DHT22;204;48.942;9.256;2024-02-15T05:59:49;10.90;1.00
435;DHT22;204;48.942;9.256;2024-02-15T06:02:14;10.90;1.00
435;DHT22;204;48.942;9.256;2024-02-15T06:04:41;11.00;1.00
435;DHT22;204;48.942;9.256;2024-02-15T06:07:06;11.00;1.00
435;DHT22;204;48.942;9.256;2024-02-15T06:09:35;11.00;1.00
435;DHT22;204;48.942;9.256;2024-02-15T06:12:02;11.00;1.00
435;DHT22;204;48.942;9.256;2024-02-15T06:14:28;11.10;1.00
435;DHT22;204;48.942;9.256;2024-02-15T06:16:53;11.10;1.00
435;DHT22;204;48.942;9.256;2024-02-15T06:19:20;11.20;1.00
435;DHT22;204;48.942;9.256;2024-02-15T06:21:47;11.20;1.00
435;DHT22;204;48.942;9.256;2024-02-15T06:24:12;11.20;1.00
435;DHT22;204;48.942;9.256;2024-02-15T06:26:39;11.20;1.00
435;DHT22;204;48.942;9.256;2024-02-15T06:29:05;11.20;1.00
435;DHT22;204;48.942;9.256;2024-02-15T06:31:49;11.30;1.00
435;DHT22;204;48.942;9.256;2024-02-15T06:34:38;11.40;1.00
435;DHT22;204;48.942;9.256;2024-02-15T06:37:38;11.40;1.00
435;DHT22;204;48.942;9.256;2024-02-15T06:40:23;11.40;1.00
435;DHT22;204;48.942;9.256;2024-02-15T06:42:49;11.40;1.00
435;DHT22;204;48.942;9.256;2024-02-15T06:45:14;11.40;1.00
435;DHT22;204;48.942;9.256;2024-02-15T06:47:43;11.40;1.00
435;DHT22;204;48.942;9.256;2024-02-15T06:50:11;11.40;1.00
435;DHT22;204;48.942;9.256;2024-02-15T06:52:37;11.40;1.00
435;DHT22;204;48.942;9.256;2024-02-15T06:55:06;11.40;1.00
435;DHT22;204;48.942;9.256;2024-02-15T06:57:33;11.50;1.00
435;DHT22;204;48.942;9.256;2024-02-15T07:00:04;11.60;1.00
435;DHT22;204;48.942;9.256;2024-02-15T07:02:33;11.60;1.00
435;DHT22;204;48.942;9.256;2024-02-15T07:04:59;11.70;1.00
435;DHT22;204;48.942;9.256;2024-02-15T07:07:25;11.80;1.00
435;DHT22;204;48.942;9.256;2024-02-15T07:09:51;11.90;1.00
435;DHT22;204;48.942;9.256;2024-02-15T07:12:16;12.00;1.00
435;DHT22;204;48.942;9.256;2024-02-15T07:14:42;12.00;1.00
435;DHT22;204;48.942;9.256;2024-02-15T07:17:08;12.10;1.00
435;DHT22;204;48.942;9.256;2024-02-15T07:19:34;12.20;1.00
435;DHT22;204;48.942;9.256;2024-02-15T07:22:02;12.20;1.00
435;DHT22;204;48.942;9.256;2024-02-15T07:24:28;12.30;1.00
435;DHT22;204;48.942;9.256;2024-02-15T07:26:53;12.40;1.00
435;DHT22;204;48.942;9.256;2024-02-15T07:29:21;12.50;1.00
435;DHT22;204;48.942;9.256;2024-02-15T07:31:49;12.50;1.00
435;DHT22;204;48.942;9.256;2024-02-15T07:34:15;12.60;1.00
435;DHT22;204;48.942;9.256;2024-02-15T07:36:42;12.60;1.00
435;DHT22;204;48.942;9.256;2024-02-15T07:39:08;12.70;1.00
435;DHT22;204;48.942;9.256;2024-02-15T07:41:38;12.80;1.00
435;DHT22;204;48.942;9.256;2024-02-15T07:44:04;12.80;1.00
435;DHT22;204;48.942;9.256;2024-02-15T07:46:29;12.90;1.00
435;DHT22;204;48.942;9.256;2024-02-15T07:48:55;13.00;1.00
435;DHT22;204;48.942;9.256;2024-02-15T07:51:22;13.10;1.00
435;DHT22;204;48.942;9.256;2024-02-15T07:53:48;13.20;1.00
435;DHT22;204;48.942;9.256;2024-02-15T07:56:15;13.30;1.00
435;DHT22;204;48.942;9.256;2024-02-15T07:58:47;13.40;99.90
435;DHT22;204;48.942;9.256;2024-02-15T08:01:16;13.50;99.90
435;DHT22;204;48.942;9.256;2024-02-15T08:03:42;13.70;99.90
435;DHT22;204;48.942;9.256;2024-02-15T08:06:11;13.80;99.90
435;DHT22;204;48.942;9.256;2024-02-15T08:08:38;13.90;99.90
435;DHT22;204;48.942;9.256;2024-02-15T08:11:07;14.10;99.90
435;DHT22;204;48.942;9.256;2024-02-15T08:13:49;14.20;99.90
435;DHT22;204;48.942;9.256;2024-02-15T08:16:16;14.20;99.90
435;DHT22;204;48.942;9.256;2024-02-15T08:18:43;14.30;99.90
435;DHT22;204;48.942;9.256;2024-02-15T08:21:12;14.40;99.90
435;DHT22;204;48.942;9.256;2024-02-15T08:23:38;14.60;99.90
435;DHT22;204;48.942;9.256;2024-02-15T08:26:04;14.70;99.90
435;DHT22;204;48.942;9.256;2024-02-15T08:28:30;14.80;99.90
435;DHT22;204;48.942;9.256;2024-02-15T08:30:56;14.80;99.90
435;DHT22;204;48.942;9.256;2024-02-15T08:33:25;14.90;99.90
435;DHT22;204;48.942;9.256;2024-02-15T08:35:54;14.90;99.90
435;DHT22;204;48.942;9.256;2024-02-15T08:38:21;15.00;99.90
435;DHT22;204;48.942;9.256;2024-02-15T08:40:47;15.00;99.90
435;DHT22;204;48.942;9.256;2024-02-15T08:43:13;15.10;99.90
435;DHT22;204;48.942;9.256;2024-02-15T08:45:39;15.20;99.90
435;DHT22;204;48.942;9.256;2024-02-15T08:48:05;15.30;99.90
435;DHT22;204;48.942;9.256;2024-02-15T08:50:31;15.30;99.90
435;DHT22;204;48.942;9.256;2024-02-15T08:52:56;15.40;99.90
435;DHT22;204;48.942;9.256;2024-02-15T08:55:22;15.50;99.90
435;DHT22;204;48.942;9.256;2024-02-15T08:57:53;15.50;99.90
435;DHT22;204;48.942;9.256;2024-02-15T09:00:20;15.50;99.90
435;DHT22;204;48.942;9.256;2024-02-15T09:02:46;15.50;99.90
435;DHT22;204;48.942;9.256;2024-02-15T09:05:13;15.50;99.90
435;DHT22;204;48.942;9.256;2024-02-15T09:07:43;15.50;99.90
435;DHT22;204;48.942;9.256;2024-02-15T09:10:11;15.60;99.90
435;DHT22;204;48.942;9.256;2024-02-15T09:12:38;15.50;99.90
435;DHT22;204;48.942;9.256;2024-02-15T09:15:11;15.60;99.90
435;DHT22;204;48.942;9.256;2024-02-15T09:17:37;15.60;99.90
435;DHT22;204;48.942;9.256;2024-02-15T09:20:07;15.60;99.90
435;DHT22;204;48.942;9.256;2024-02-15T09:22:34;15.70;99.90
435;DHT22;204;48.942;9.256;2024-02-15T09:25:02;15.70;99.90
435;DHT22;204;48.942;9.256;2024-02-15T09:27:27;15.70;99.90
435;DHT22;204;48.942;9.256;2024-02-15T09:29:54;15.70;99.90
435;DHT22;204;48.942;9.256;2024-02-15T09:32:21;15.70;99.90
435;DHT22;204;48.942;9.256;2024-02-15T09:34:48;15.70;99.90
435;DHT22;204;48.942;9.256;2024-02-15T09:37:13;15.70;99.90
435;DHT22;204;48.942;9.256;2024-02-15T09:39:39;15.70;99.90
435;DHT22;204;48.942;9.256;2024-02-15T09:42:05;15.60;99.90
435;DHT22;204;48.942;9.256;2024-02-15T09:44:31;15.60;99.90
435;DHT22;204;48.942;9.256;2024-02-15T09:47:04;15.60;99.90
435;DHT22;204;48.942;9.256;2024-02-15T09:49:36;15.70;99.90
435;DHT22;204;48.942;9.256;2024-02-15T09:52:03;15.70;99.90
435;DHT22;204;48.942;9.256;2024-02-15T09:54:30;15.70;99.90
435;DHT22;204;48.942;9.256;2024-02-15T09:56:56;15.70;99.90
435;DHT22;204;48.942;9.256;2024-02-15T09:59:26;15.80;99.90
435;DHT22;204;48.942;9.256;2024-02-15T10:01:52;15.70;99.90
435;DHT22;204;48.942;9.256;2024-02-15T10:04:20;15.70;99.90
435;DHT22;204;48.942;9.256;2024-02-15T10:06:45;15.60;99.90
435;DHT22;204;48.942;9.256;2024-02-15T10:09:27;15.60;99.90
435;DHT22;204;48.942;9.256;2024-02-15T10:11:58;15.70;99.90
435;DHT22;204;48.942;9.256;2024-02-15T10:14:28;15.80;99.90
435;DHT22;204;48.942;9.256;2024-02-15T10:16:54;15.80;99.90
435;DHT22;204;48.942;9.256;2024-02-15T10:19:21;15.80;99.90
435;DHT22;204;48.942;9.256;2024-02-15T10:21:52;15.90;99.90
435;DHT22;204;48.942;9.256;2024-02-15T10:24:22;15.90;99.90
435;DHT22;204;48.942;9.256;2024-02-15T10:26:49;15.90;99.90
435;DHT22;204;48.942;9.256;2024-02-15T10:29:16;16.00;99.90
435;DHT22;204;48.942;9.256;2024-02-15T10:31:53;16.00;99.90
435;DHT22;204;48.942;9.256;2024-02-15T10:34:20;16.00;99.90
435;DHT22;204;48.942;9.256;2024-02-15T10:36:45;16.00;99.90
435;DHT22;204;48.942;9.256;2024-02-15T10:41:43;16.20;99.90
435;DHT22;204;48.942;9.256;2024-02-15T10:44:11;16.20;99.90
435;DHT22;204;48.942;9.256;2024-02-15T10:46:39;16.40;99.90
435;DHT22;204;48.942;9.256;2024-02-15T10:49:05;16.40;99.90
435;DHT22;204;48.942;9.256;2024-02-15T10:51:31;16.40;99.90
435;DHT22;204;48.942;9.256;2024-02-15T10:54:02;16.50;99.90
435;DHT22;204;48.942;9.256;2024-02-15T10:56:36;16.60;99.90
435;DHT22;204;48.942;9.256;2024-02-15T10:59:17;16.60;99.90
435;DHT22;204;48.942;9.256;2024-02-15T11:01:46;16.60;99.90
435;DHT22;204;48.942;9.256;2024-02-15T11:04:19;16.60;99.90
435;DHT22;204;48.942;9.256;2024-02-15T11:06:48;16.70;99.90
435;DHT22;204;48.942;9.256;2024-02-15T11:09:16;16.70;99.90
435;DHT22;204;48.942;9.256;2024-02-15T11:11:42;16.80;99.90
435;DHT22;204;48.942;9.256;2024-02-15T11:17:01;16.70;99.90
435;DHT22;204;48.942;9.256;2024-02-15T11:21:58;16.80;99.90
435;DHT22;204;48.942;9.256;2024-02-15T11:24:32;17.00;99.90
435;DHT22;204;48.942;9.256;2024-02-15T11:27:02;17.20;99.90
435;DHT22;204;48.942;9.256;2024-02-15T11:30:00;17.30;99.90
435;DHT22;204;48.942;9.256;2024-02-15T11:35:17;17.50;99.90
435;DHT22;204;48.942;9.256;2024-02-15T11:43:10;17.80;99.90
435;DHT22;204;48.942;9.256;2024-02-15T11:45:36;17.90;99.90
435;DHT22;204;48.942;9.256;2024-02-15T11:48:10;18.00;99.90
435;DHT22;204;48.942;9.256;2024-02-15T11:50:37;18.10;99.90
435;DHT22;204;48.942;9.256;2024-02-15T11:53:04;18.00;99.90
435;DHT22;204;48.942;9.256;2024-02-15T11:55:37;18.10;99.90
435;DHT22;204;48.942;9.256;2024-02-15T11:58:07;18.10;99.90
435;DHT22;204;48.942;9.256;2024-02-15T12:00:33;18.20;99.90
435;DHT22;204;48.942;9.256;2024-02-15T12:03:18;18.10;99.90
435;DHT22;204;48.942;9.256;2024-02-15T12:06:03;18.20;99.90
435;DHT22;204;48.942;9.256;2024-02-15T12:08:48;18.30;99.90
435;DHT22;204;48.942;9.256;2024-02-15T12:11:33;18.40;99.90
435;DHT22;204;48.942;9.256;2024-02-15T12:14:17;18.50;99.90
435;DHT22;204;48.942;9.256;2024-02-15T12:17:04;18.60;99.90
435;DHT22;204;48.942;9.256;2024-02-15T12:19:50;18.60;99.90
435;DHT22;204;48.942;9.256;2024-02-15T12:22:18;18.50;99.90
435;DHT22;204;48.942;9.256;2024-02-15T12:24:53;18.50;99.90
435;DHT22;204;48.942;9.256;2024-02-15T12:27:19;18.50;99.90
435;DHT22;204;48.942;9.256;2024-02-15T12:29:51;18.50;99.90
435;DHT22;204;48.942;9.256;2024-02-15T12:32:27;18.50;99.90
435;DHT22;204;48.942;9.256;2024-02-15T12:35:09;18.60;99.90
435;DHT22;204;48.942;9.256;2024-02-15T12:37:35;18.60;99.90
435;DHT22;204;48.942;9.256;2024-02-15T12:40:11;18.70;99.90
435;DHT22;204;48.942;9.256;2024-02-15T12:42:39;18.70;99.90
435;DHT22;204;48.942;9.256;2024-02-15T12:45:05;18.70;99.90
435;DHT22;204;48.942;9.256;2024-02-15T12:47:33;18.80;99.90
435;DHT22;204;48.942;9.256;2024-02-15T12:50:13;18.80;99.90
435;DHT22;204;48.942;9.256;2024-02-15T12:52:39;18.80;99.90
435;DHT22;204;48.942;9.256;2024-02-15T12:55:12;18.80;99.90
435;DHT22;204;48.942;9.256;2024-02-15T12:57:38;18.80;99.90
435;DHT22;204;48.942;9.256;2024-02-15T13:00:09;18.90;99.90
435;DHT22;204;48.942;9.256;2024-02-15T13:02:49;18.90;99.90
435;DHT22;204;48.942;9.256;2024-02-15T13:05:19;19.10;99.90
435;DHT22;204;48.942;9.256;2024-02-15T13:07:49;19.20;99.90
435;DHT22;204;48.942;9.256;2024-02-15T13:10:15;19.40;99.90
435;DHT22;204;48.942;9.256;2024-02-15T13:12:42;19.50;99.90
435;DHT22;204;48.942;9.256;2024-02-15T13:15:09;19.60;99.90
435;DHT22;204;48.942;9.256;2024-02-15T13:17:46;19.70;99.90
435;DHT22;204;48.942;9.256;2024-02-15T13:20:14;19.90;99.90
435;DHT22;204;48.942;9.256;2024-02-15T13:22:41;19.90;99.90
435;DHT22;204;48.942;9.256;2024-02-15T13:25:09;19.90;99.90
435;DHT22;204;48.942;9.256;2024-02-15T13:27:35;19.90;99.90
435;DHT22;204;48.942;9.256;2024-02-15T13:30:06;19.90;99.90
435;DHT22;204;48.942;9.256;2024-02-15T13:32:37;19.90;99.90
435;DHT22;204;48.942;9.256;2024-02-15T13:35:05;20.00;99.90
435;DHT22;204;48.942;9.256;2024-02-15T13:40:12;20.20;99.90
435;DHT22;204;48.942;9.256;2024-02-15T13:42:44;20.20;99.90
435;DHT22;204;48.942;9.256;2024-02-15T13:47:46;20.20;99.90
435;DHT22;204;48.942;9.256;2024-02-15T13:50:12;20.30;99.90
435;DHT22;204;48.942;9.256;2024-02-15T13:52:41;20.40;99.90
435;DHT22;204;48.942;9.256;2024-02-15T13:55:12;20.40;99.90
435;DHT22;204;48.942;9.256;2024-02-15T13:57:43;20.50;99.90
435;DHT22;204;48.942;9.256;2024-02-15T14:00:10;20.50;99.90
435;DHT22;204;48.942;9.256;2024-02-15T14:02:42;20.50;99.90
435;DHT22;204;48.942;9.256;2024-02-15T14:05:11;20.50;99.90
435;DHT22;204;48.942;9.256;2024-02-15T14:07:38;20.40;99.90
435;DHT22;204;48.942;9.256;2024-02-15T14:10:07;20.40;99.90
435;DHT22;204;48.942;9.256;2024-02-15T14:12:33;20.40;99.90
435;DHT22;204;48.942;9.256;2024-02-15T14:15:00;20.40;99.90
435;DHT22;204;48.942;9.256;2024-02-15T14:17:25;20.30;99.90
435;DHT22;204;48.942;9.256;2024-02-15T14:19:51;20.30;99.90
435;DHT22;204;48.942;9.256;2024-02-15T14:22:16;20.30;99.90
435;DHT22;204;48.942;9.256;2024-02-15T14:24:43;20.30;99.90
435;DHT22;204;48.942;9.256;2024-02-15T14:27:11;20.30;99.90
435;DHT22;204;48.942;9.256;2024-02-15T14:29:37;20.30;99.90
435;DHT22;204;48.942;9.256;2024-02-15T14:32:11;20.30;99.90
435;DHT22;204;48.942;9.256;2024-02-15T14:34:55;20.10;99.90
435;DHT22;204;48.942;9.256;2024-02-15T14:37:22;20.10;99.90
435;DHT22;204;48.942;9.256;2024-02-15T14:39:47;20.10;99.90
435;DHT22;204;48.942;9.256;2024-02-15T14:42:13;20.10;99.90
435;DHT22;204;48.942;9.256;2024-02-15T14:44:39;20.10;99.90
435;DHT22;204;48.942;9.256;2024-02-15T14:47:05;20.00;99.90
435;DHT22;204;48.942;9.256;2024-02-15T14:49:31;20.00;99.90
435;DHT22;204;48.942;9.256;2024-02-15T14:51:56;20.00;99.90
435;DHT22;204;48.942;9.256;2024-02-15T14:54:22;20.10;99.90
435;DHT22;204;48.942;9.256;2024-02-15T14:56:47;20.00;99.90
435;DHT22;204;48.942;9.256;2024-02-15T14:59:13;20.00;99.90
435;DHT22;204;48.942;9.256;2024-02-15T15:01:40;19.90;99.90
435;DHT22;204;48.942;9.256;2024-02-15T15:04:06;19.80;99.90
435;DHT22;204;48.942;9.256;2024-02-15T15:06:33;19.60;99.90
435;DHT22;204;48.942;9.256;2024-02-15T15:09:17;19.50;99.90
435;DHT22;204;48.942;9.256;2024-02-15T15:12:01;19.40;99.90
435;DHT22;204;48.942;9.256;2024-02-15T15:14:45;19.30;99.90
435;DHT22;204;48.942;9.256;2024-02-15T15:17:11;19.30;99.90
435;DHT22;204;48.942;9.256;2024-02-15T15:19:38;19.20;99.90
435;DHT22;204;48.942;9.256;2024-02-15T15:22:04;19.20;99.90
435;DHT22;204;48.942;9.256;2024-02-15T15:24:31;19.20;99.90
435;DHT22;204;48.942;9.256;2024-02-15T15:26:58;19.20;99.90
435;DHT22;204;48.942;9.256;2024-02-15T15:29:25;19.20;99.90
435;DHT22;204;48.942;9.256;2024-02-15T15:31:50;19.10;99.90
435;DHT22;204;48.942;9.256;2024-02-15T15:34:17;19.10;99.90
435;DHT22;204;48.942;9.256;2024-02-15T15:36:45;19.10;99.90
435;DHT22;204;48.942;9.256;2024-02-15T15:39:12;19.00;99.90
435;DHT22;204;48.942;9.256;2024-02-15T15:41:38;19.00;99.90
435;DHT22;204;48.942;9.256;2024-02-15T15:44:04;18.90;99.90
435;DHT22;204;48.942;9.256;2024-02-15T15:46:30;18.80;99.90
435;DHT22;204;48.942;9.256;2024-02-15T15:48:59;18.70;99.90
435;DHT22;204;48.942;9.256;2024-02-15T15:51:24;18.60;99.90
435;DHT22;204;48.942;9.256;2024-02-15T15:53:51;18.50;99.90
435;DHT22;204;48.942;9.256;2024-02-15T15:56:17;18.40;99.90
435;DHT22;204;48.942;9.256;2024-02-15T15:58:43;18.20;99.90
435;DHT22;204;48.942;9.256;2024-02-15T16:01:13;18.10;99.90
435;DHT22;204;48.942;9.256;2024-02-15T16:03:39;18.10;99.90
435;DHT22;204;48.942;9.256;2024-02-15T16:06:05;18.00;99.90
435;DHT22;204;48.942;9.256;2024-02-15T16:08:33;18.00;99.90
435;DHT22;204;48.942;9.256;2024-02-15T16:10:59;17.90;99.90
435;DHT22;204;48.942;9.256;2024-02-15T16:13:24;17.70;99.90
435;DHT22;204;48.942;9.256;2024-02-15T16:15:52;17.60;99.90
435;DHT22;204;48.942;9.256;2024-02-15T16:18:19;17.50;99.90
435;DHT22;204;48.942;9.256;2024-02-15T16:20:46;17.40;99.90
435;DHT22;204;48.942;9.256;2024-02-15T16:23:12;17.20;99.90
435;DHT22;204;48.942;9.256;2024-02-15T16:25:38;17.10;99.90
435;DHT22;204;48.942;9.256;2024-02-15T16:28:04;17.00;99.90
435;DHT22;204;48.942;9.256;2024-02-15T16:30:35;16.90;99.90
435;DHT22;204;48.942;9.256;2024-02-15T16:33:01;16.80;99.90
435;DHT22;204;48.942;9.256;2024-02-15T16:35:27;16.60;99.90
435;DHT22;204;48.942;9.256;2024-02-15T16:37:52;16.50;99.90
435;DHT22;204;48.942;9.256;2024-02-15T16:40:19;16.40;99.90
435;DHT22;204;48.942;9.256;2024-02-15T16:42:48;16.20;99.90
435;DHT22;204;48.942;9.256;2024-02-15T16:45:16;16.10;99.90
435;DHT22;204;48.942;9.256;2024-02-15T16:47:43;16.00;99.90
435;DHT22;204;48.942;9.256;2024-02-15T16:50:20;15.90;99.90
435;DHT22;204;48.942;9.256;2024-02-15T16:52:48;15.80;99.90
435;DHT22;204;48.942;9.256;2024-02-15T16:55:15;15.70;99.90
435;DHT22;204;48.942;9.256;2024-02-15T16:57:40;15.60;99.90
435;DHT22;204;48.942;9.256;2024-02-15T17:00:07;15.50;99.90
435;DHT22;204;48.942;9.256;2024-02-15T17:02:34;15.50;99.90
435;DHT22;204;48.942;9.256;2024-02-15T17:05:01;15.40;99.90
435;DHT22;204;48.942;9.256;2024-02-15T17:07:29;15.40;99.90